createdAt,value
2018-05-31T00:01:27.531Z,22.50
2018-05-31T00:03:55.139Z,21.50
2018-05-31T00:06:22.736Z,21.57
2018-05-31T00:09:03.164Z,20.03
2018-05-31T00:11:30.797Z,20.27
2018-05-31T00:13:58.403Z,19.40
2018-05-31T00:16:26.014Z,20.37
2018-05-31T00:18:53.624Z,19.80
2018-05-31T00:21:21.226Z,20.70
2018-05-31T00:24:22.789Z,23.00
2018-05-31T00:26:50.411Z,19.83
2018-05-31T00:29:51.562Z,20.07
2018-05-31T00:32:37.498Z,18.97
2018-05-31T00:35:05.740Z,20.10
2018-05-31T00:37:59.906Z,23.93
2018-05-31T00:40:27.548Z,21.60
2018-05-31T00:42:55.136Z,22.13
2018-05-31T00:45:23.529Z,20.17
2018-05-31T00:48:17.286Z,19.37
2018-05-31T00:50:46.173Z,18.83
2018-05-31T00:53:17.912Z,18.23
2018-05-31T00:56:13.907Z,17.27
2018-05-31T00:58:42.409Z,18.30
2018-05-31T01:04:18.087Z,17.40
2018-05-31T01:06:45.712Z,17.80
2018-05-31T01:09:13.350Z,16.80
2018-05-31T01:12:30.410Z,16.73
2018-05-31T01:15:15.558Z,17.60
2018-05-31T01:17:43.172Z,17.07
2018-05-31T01:20:20.815Z,18.37
2018-05-31T01:22:48.427Z,18.30
2018-05-31T01:25:16.031Z,17.90
2018-05-31T01:27:47.238Z,17.37
2018-05-31T01:33:04.771Z,17.97
2018-05-31T01:35:40.553Z,18.00
2018-05-31T01:38:20.123Z,17.97
2018-05-31T01:40:47.753Z,16.87
2018-05-31T01:43:15.359Z,16.67
2018-05-31T01:45:42.989Z,17.00
2018-05-31T01:48:11.512Z,16.87
2018-05-31T01:50:39.117Z,16.80
2018-05-31T01:53:28.985Z,15.90
2018-05-31T01:56:36.304Z,17.10
2018-05-31T01:59:27.423Z,18.60
2018-05-31T02:02:15.502Z,18.23
2018-05-31T02:04:43.120Z,18.13
2018-05-31T02:07:10.723Z,17.60
2018-05-31T02:10:01.065Z,20.60
2018-05-31T02:12:28.676Z,21.33
2018-05-31T02:15:07.745Z,21.53
2018-05-31T02:17:35.345Z,21.00
2018-05-31T02:20:04.539Z,21.47
2018-05-31T02:22:32.193Z,20.33
2018-05-31T02:25:00.573Z,20.87
2018-05-31T02:27:28.975Z,19.97
2018-05-31T02:29:57.379Z,20.47
2018-05-31T02:32:24.985Z,19.27
2018-05-31T02:34:52.629Z,20.40
2018-05-31T02:37:20.248Z,21.10
2018-05-31T02:39:48.640Z,20.20
2018-05-31T02:42:17.028Z,22.00
2018-05-31T02:44:46.290Z,23.73
2018-05-31T02:47:13.902Z,22.13
2018-05-31T02:49:41.533Z,21.87
2018-05-31T02:52:09.128Z,22.00
2018-05-31T02:54:37.469Z,23.83
2018-05-31T02:57:05.064Z,22.57
2018-05-31T02:59:32.693Z,23.03
2018-05-31T03:02:00.306Z,22.77
2018-05-31T03:04:27.909Z,22.83
2018-05-31T03:06:55.525Z,23.63
2018-05-31T03:09:23.945Z,24.00
2018-05-31T03:11:51.540Z,27.17
2018-05-31T03:14:19.147Z,26.67
2018-05-31T03:16:47.353Z,26.83
2018-05-31T03:19:14.929Z,25.60
2018-05-31T03:21:42.530Z,25.00
2018-05-31T03:24:10.134Z,26.77
2018-05-31T03:26:37.735Z,25.63
2018-05-31T03:29:05.334Z,28.07
2018-05-31T03:31:33.696Z,27.70
2018-05-31T03:34:01.366Z,26.90
2018-05-31T03:36:28.920Z,26.87
2018-05-31T03:38:56.522Z,27.47
2018-05-31T03:41:24.890Z,27.80
2018-05-31T03:43:52.473Z,27.20
2018-05-31T03:46:20.827Z,26.23
2018-05-31T03:48:48.433Z,25.40
2018-05-31T03:51:16.055Z,24.90
2018-05-31T03:53:43.652Z,25.37
2018-05-31T03:56:12.053Z,25.13
2018-05-31T03:58:39.656Z,26.33
2018-05-31T04:01:07.244Z,27.43
2018-05-31T04:03:34.832Z,26.80
2018-05-31T04:06:03.214Z,26.13
2018-05-31T04:08:31.601Z,27.40
2018-05-31T04:10:59.952Z,27.57
2018-05-31T04:13:27.554Z,26.97
2018-05-31T04:15:55.169Z,26.63
2018-05-31T04:18:22.765Z,28.13
2018-05-31T04:20:51.146Z,32.60
2018-05-31T04:23:18.756Z,35.20
2018-05-31T04:25:46.365Z,32.30
2018-05-31T04:28:13.952Z,32.80
2018-05-31T04:30:42.339Z,34.50
2018-05-31T04:33:10.707Z,34.60
2018-05-31T04:35:39.091Z,35.00
2018-05-31T04:38:06.681Z,35.37
2018-05-31T04:40:35.043Z,36.03
2018-05-31T04:43:03.491Z,35.80
2018-05-31T04:45:31.122Z,37.07
2018-05-31T04:47:58.763Z,35.93
2018-05-31T04:50:26.362Z,37.77
2018-05-31T04:52:54.001Z,36.17
2018-05-31T04:55:22.390Z,36.43
2018-05-31T04:57:50.784Z,36.47
2018-05-31T05:00:18.417Z,38.27
2018-05-31T05:02:46.002Z,37.43
2018-05-31T05:05:14.360Z,35.63
2018-05-31T05:07:42.147Z,36.30
2018-05-31T05:10:10.492Z,38.10
2018-05-31T05:12:38.130Z,37.33
2018-05-31T05:15:05.726Z,36.00
2018-05-31T05:17:33.363Z,37.90
2018-05-31T05:20:01.729Z,37.33
2018-05-31T05:22:29.333Z,37.20
2018-05-31T05:24:56.960Z,37.87
2018-05-31T05:27:24.573Z,37.90
2018-05-31T05:29:52.149Z,37.40
2018-05-31T05:32:20.653Z,37.30
2018-05-31T05:34:49.037Z,37.63
2018-05-31T05:37:17.423Z,37.87
2018-05-31T05:39:45.781Z,39.00
2018-05-31T05:42:13.397Z,38.93
2018-05-31T05:44:41.032Z,38.70
2018-05-31T05:47:09.390Z,38.07
2018-05-31T05:49:36.991Z,37.93
2018-05-31T05:52:04.590Z,38.17
2018-05-31T05:54:32.218Z,38.13
2018-05-31T05:57:00.585Z,37.10
2018-05-31T05:59:28.171Z,35.53
2018-05-31T06:01:55.786Z,37.07
2018-05-31T06:04:24.179Z,35.57
2018-05-31T06:06:51.769Z,35.53
2018-05-31T06:09:19.401Z,34.30
2018-05-31T06:11:47.006Z,32.67
2018-05-31T06:14:14.697Z,32.67
2018-05-31T06:16:42.303Z,33.17
2018-05-31T06:19:09.954Z,31.93
2018-05-31T06:21:37.562Z,31.60
2018-05-31T06:24:05.164Z,30.77
2018-05-31T06:26:32.880Z,30.17
2018-05-31T06:29:00.481Z,31.40
2018-05-31T06:31:28.122Z,32.17
2018-05-31T06:33:56.137Z,31.73
2018-05-31T06:36:23.890Z,31.00
2018-05-31T06:38:52.825Z,30.73
2018-05-31T06:41:20.766Z,28.87
2018-05-31T06:43:48.432Z,29.23
2018-05-31T06:46:16.074Z,30.60
2018-05-31T06:48:43.677Z,31.53
2018-05-31T06:51:11.297Z,30.90
2018-05-31T06:53:38.920Z,31.10
2018-05-31T06:56:06.488Z,32.23
2018-05-31T06:58:34.363Z,32.37
2018-05-31T07:01:02.007Z,32.50
2018-05-31T07:03:30.488Z,34.30
2018-05-31T07:05:58.092Z,32.43
2018-05-31T07:08:25.713Z,32.40
2018-05-31T07:10:57.181Z,29.83
2018-05-31T07:13:28.298Z,29.77
2018-05-31T07:15:55.969Z,29.70
2018-05-31T07:18:24.343Z,29.30
2018-05-31T07:20:52.740Z,29.53
2018-05-31T07:23:21.105Z,28.57
2018-05-31T07:25:49.474Z,26.47
2018-05-31T07:28:17.073Z,27.93
2018-05-31T07:30:45.927Z,29.53
2018-05-31T07:33:13.521Z,28.90
2018-05-31T07:35:41.919Z,30.83
2018-05-31T07:38:09.535Z,31.57
2018-05-31T07:40:37.147Z,28.83
2018-05-31T07:43:04.785Z,26.90
2018-05-31T07:45:32.531Z,25.80
2018-05-31T07:48:00.173Z,26.97
2018-05-31T07:50:27.753Z,27.40
2018-05-31T07:52:56.070Z,28.57
2018-05-31T07:55:23.689Z,27.53
2018-05-31T07:57:51.312Z,26.83
2018-05-31T08:00:19.675Z,25.77
2018-05-31T08:02:47.325Z,23.87
2018-05-31T08:05:14.971Z,24.80
2018-05-31T08:07:42.576Z,22.97
2018-05-31T08:10:10.170Z,21.00
2018-05-31T08:12:37.811Z,21.90
2018-05-31T08:15:05.381Z,22.33
2018-05-31T08:17:33.085Z,20.63
2018-05-31T08:20:00.679Z,20.17
2018-05-31T08:22:28.293Z,20.77
2018-05-31T08:24:55.972Z,21.47
2018-05-31T08:27:23.579Z,21.13
2018-05-31T08:29:51.926Z,20.30
2018-05-31T08:32:19.495Z,20.23
2018-05-31T08:34:47.099Z,21.53
2018-05-31T08:37:14.710Z,20.63
2018-05-31T08:39:43.084Z,21.73
2018-05-31T08:42:11.474Z,21.63
2018-05-31T08:44:39.106Z,20.50
2018-05-31T08:47:06.721Z,20.83
2018-05-31T08:49:34.351Z,21.03
2018-05-31T08:52:02.818Z,20.13
2018-05-31T08:54:30.447Z,19.27
2018-05-31T08:56:58.072Z,19.00
2018-05-31T08:59:25.687Z,17.37
2018-05-31T09:01:53.329Z,14.47
2018-05-31T09:04:20.921Z,11.33
2018-05-31T09:06:48.506Z,9.93
2018-05-31T09:09:16.095Z,10.80
2018-05-31T09:11:43.694Z,11.93
2018-05-31T09:14:11.292Z,11.77
2018-05-31T09:16:38.916Z,8.70
2018-05-31T09:19:06.543Z,7.03
2018-05-31T09:21:35.182Z,6.20
2018-05-31T09:24:02.821Z,5.70
2018-05-31T09:26:31.273Z,6.00
2018-05-31T09:28:58.854Z,6.20
2018-05-31T09:31:26.432Z,5.73
2018-05-31T09:33:54.782Z,5.77
2018-05-31T09:36:22.392Z,5.63
2018-05-31T09:38:49.978Z,6.30
2018-05-31T09:41:17.589Z,6.20
2018-05-31T09:43:45.699Z,6.93
2018-05-31T09:46:13.361Z,7.07
2018-05-31T09:48:41.725Z,7.00
2018-05-31T09:51:09.398Z,7.97
2018-05-31T09:53:36.993Z,8.20
2018-05-31T09:56:04.622Z,9.03
2018-05-31T09:58:32.201Z,9.43
2018-05-31T10:01:00.600Z,10.73
2018-05-31T10:03:28.210Z,10.83
2018-05-31T10:05:55.835Z,11.00
2018-05-31T10:08:23.411Z,14.20
2018-05-31T10:10:51.017Z,14.20
2018-05-31T10:13:18.656Z,14.30
2018-05-31T10:15:46.289Z,14.50
2018-05-31T10:18:13.913Z,13.10
2018-05-31T10:20:42.122Z,15.37
2018-05-31T10:23:10.494Z,14.80
2018-05-31T10:25:38.892Z,14.50
2018-05-31T10:28:07.309Z,14.90
2018-05-31T10:30:34.945Z,14.30
2018-05-31T10:33:02.537Z,14.30
2018-05-31T10:35:30.135Z,15.60
2018-05-31T10:37:57.747Z,16.90
2018-05-31T10:40:25.372Z,15.80
2018-05-31T10:42:52.987Z,16.10
2018-05-31T10:45:20.621Z,16.27
2018-05-31T10:47:49.038Z,15.37
2018-05-31T10:50:16.697Z,15.20
2018-05-31T10:52:44.287Z,15.00
2018-05-31T10:55:11.898Z,14.60
2018-05-31T10:57:39.504Z,13.60
2018-05-31T11:00:07.116Z,12.80
2018-05-31T11:02:34.723Z,11.87
2018-05-31T11:05:02.359Z,10.73
2018-05-31T11:07:29.943Z,9.83
2018-05-31T11:09:57.576Z,9.63
2018-05-31T11:12:25.161Z,8.60
2018-05-31T11:14:52.788Z,9.00
2018-05-31T11:17:20.401Z,9.30
2018-05-31T11:19:48.770Z,8.43
2018-05-31T11:22:17.204Z,9.43
2018-05-31T11:24:44.784Z,8.57
2018-05-31T11:27:12.390Z,8.37
2018-05-31T11:29:40.734Z,7.83
2018-05-31T11:32:08.328Z,6.90
2018-05-31T11:34:35.934Z,6.40
2018-05-31T11:37:03.542Z,5.73
2018-05-31T11:39:31.124Z,5.30
2018-05-31T11:41:58.814Z,5.53
2018-05-31T11:44:27.157Z,5.07
2018-05-31T11:46:54.793Z,5.30
2018-05-31T11:49:22.427Z,5.27
2018-05-31T11:51:50.789Z,5.40
2018-05-31T11:54:18.423Z,5.77
2018-05-31T11:56:46.716Z,5.00
2018-05-31T11:59:14.320Z,5.50
2018-05-31T12:01:42.730Z,5.73
2018-05-31T12:04:10.391Z,5.70
2018-05-31T12:06:38.018Z,6.07
2018-05-31T12:09:05.650Z,5.73
2018-05-31T12:11:33.915Z,5.83
2018-05-31T12:14:01.534Z,5.90
2018-05-31T12:16:29.128Z,6.03
2018-05-31T12:18:56.724Z,5.80
2018-05-31T12:21:24.388Z,6.53
2018-05-31T12:23:51.973Z,6.03
2018-05-31T12:26:19.574Z,6.47
2018-05-31T12:28:48.015Z,6.10
2018-05-31T12:31:15.616Z,6.20
2018-05-31T12:33:43.212Z,6.03
2018-05-31T12:36:10.832Z,6.57
2018-05-31T12:38:38.405Z,6.97
2018-05-31T12:41:05.975Z,6.10
2018-05-31T12:43:34.379Z,6.63
2018-05-31T12:46:01.966Z,5.93
2018-05-31T12:48:29.583Z,6.57
2018-05-31T12:50:57.948Z,6.00
2018-05-31T12:53:25.772Z,5.90
2018-05-31T12:55:53.362Z,6.00
2018-05-31T12:58:20.962Z,6.30
2018-05-31T13:00:49.377Z,5.90
2018-05-31T13:03:17.000Z,5.30
2018-05-31T13:06:08.502Z,5.60
2018-05-31T13:08:36.101Z,5.10
2018-05-31T13:11:04.482Z,5.73
2018-05-31T13:13:33.150Z,5.87
2018-05-31T13:16:00.744Z,6.10
2018-05-31T13:18:29.093Z,6.70
2018-05-31T13:20:56.683Z,7.30
2018-05-31T13:23:25.034Z,7.13
2018-05-31T13:25:52.605Z,8.20
2018-05-31T13:28:20.207Z,7.80
2018-05-31T13:30:47.837Z,7.47
2018-05-31T13:33:15.415Z,7.50
2018-05-31T13:35:42.993Z,7.67
2018-05-31T13:38:11.336Z,8.43
2018-05-31T13:40:39.230Z,9.07
2018-05-31T13:43:06.915Z,9.10
2018-05-31T13:45:35.298Z,9.00
2018-05-31T13:48:03.646Z,8.63
2018-05-31T13:50:31.231Z,8.10
2018-05-31T13:52:58.836Z,8.50
2018-05-31T13:55:26.431Z,9.47
2018-05-31T13:57:54.069Z,8.60
2018-05-31T14:00:21.687Z,8.80
2018-05-31T14:02:49.266Z,9.53
2018-05-31T14:05:17.616Z,10.40
2018-05-31T14:07:45.216Z,10.73
2018-05-31T14:10:13.555Z,9.97
2018-05-31T14:12:41.163Z,10.33
2018-05-31T14:15:09.545Z,11.27
2018-05-31T14:17:37.929Z,10.73
2018-05-31T14:20:06.333Z,9.93
2018-05-31T14:22:34.071Z,10.60
2018-05-31T14:25:01.732Z,11.17
2018-05-31T14:27:29.332Z,10.53
2018-05-31T14:29:56.940Z,11.07
2018-05-31T14:32:24.525Z,11.07
2018-05-31T14:34:52.140Z,11.60
2018-05-31T14:37:19.734Z,11.80
2018-05-31T14:39:47.359Z,12.70
2018-05-31T14:42:15.664Z,11.67
2018-05-31T14:44:44.451Z,11.30
2018-05-31T14:47:12.067Z,11.50
2018-05-31T14:49:39.684Z,11.53
2018-05-31T14:52:07.327Z,10.90
2018-05-31T14:54:34.939Z,11.63
2018-05-31T14:57:02.539Z,10.57
2018-05-31T14:59:32.537Z,10.63
2018-05-31T15:02:00.770Z,11.43
2018-05-31T15:04:28.391Z,10.03
2018-05-31T15:06:55.995Z,11.10
2018-05-31T15:09:24.289Z,10.17
2018-05-31T15:11:51.934Z,10.67
2018-05-31T15:14:19.540Z,10.80
2018-05-31T15:16:47.161Z,10.97
2018-05-31T15:19:14.769Z,10.50
2018-05-31T15:21:42.369Z,11.70
2018-05-31T15:24:10.781Z,13.43
2018-05-31T15:26:38.367Z,14.37
2018-05-31T15:29:05.982Z,12.70
2018-05-31T15:31:34.347Z,12.63
2018-05-31T15:34:01.966Z,13.40
2018-05-31T15:36:29.567Z,13.87
2018-05-31T15:38:57.251Z,14.40
2018-05-31T15:41:25.729Z,14.03
2018-05-31T15:43:53.361Z,12.60
2018-05-31T15:46:20.980Z,12.23
2018-05-31T15:48:48.566Z,12.77
2018-05-31T15:51:16.199Z,11.47
2018-05-31T15:53:44.483Z,11.63
2018-05-31T15:56:12.119Z,12.50
2018-05-31T15:58:39.740Z,16.37
2018-05-31T16:01:08.165Z,14.57
2018-05-31T16:03:35.854Z,17.83
2018-05-31T16:06:03.448Z,17.20
2018-05-31T16:08:31.916Z,17.83
2018-05-31T16:10:59.518Z,18.77
2018-05-31T16:13:28.026Z,17.40
2018-05-31T16:15:55.686Z,18.47
2018-05-31T16:18:23.397Z,17.27
2018-05-31T16:20:51.783Z,19.27
2018-05-31T16:23:19.356Z,14.90
2018-05-31T16:25:48.195Z,15.17
2018-05-31T16:28:15.883Z,15.10
2018-05-31T16:30:43.500Z,13.90
2018-05-31T16:33:11.835Z,13.67
2018-05-31T16:35:39.459Z,14.17
2018-05-31T16:38:07.061Z,14.23
2018-05-31T16:40:34.660Z,13.10
2018-05-31T16:43:02.248Z,13.63
2018-05-31T16:45:29.847Z,12.53
2018-05-31T16:47:57.479Z,12.40
2018-05-31T16:50:25.892Z,12.83
2018-05-31T16:52:53.460Z,13.30
2018-05-31T16:55:21.048Z,11.77
2018-05-31T16:57:48.660Z,10.33
2018-05-31T17:00:16.226Z,11.27
2018-05-31T17:02:43.848Z,11.13
2018-05-31T17:05:12.333Z,10.30
2018-05-31T17:07:39.911Z,10.40
2018-05-31T17:10:07.524Z,10.63
2018-05-31T17:12:35.107Z,9.93
2018-05-31T17:15:02.698Z,11.27
2018-05-31T17:17:31.253Z,10.37
2018-05-31T17:19:58.940Z,10.33
2018-05-31T17:22:26.577Z,9.47
2018-05-31T17:24:54.175Z,10.30
2018-05-31T17:27:21.747Z,9.00
2018-05-31T17:29:49.361Z,9.10
2018-05-31T17:32:17.522Z,9.50
2018-05-31T17:34:45.166Z,10.10
2018-05-31T17:37:12.744Z,11.03
2018-05-31T17:39:41.080Z,9.77
2018-05-31T17:42:08.643Z,10.23
2018-05-31T17:44:36.271Z,10.23
2018-05-31T17:47:07.566Z,9.40
2018-05-31T17:49:35.154Z,8.80
2018-05-31T17:52:03.554Z,9.77
2018-05-31T17:54:32.817Z,9.60
2018-05-31T17:57:00.452Z,9.20
2018-05-31T17:59:28.095Z,9.13
2018-05-31T18:01:57.083Z,9.03
2018-05-31T18:04:25.453Z,9.77
2018-05-31T18:06:53.079Z,9.23
2018-05-31T18:09:20.656Z,9.27
2018-05-31T18:11:48.248Z,10.07
2018-05-31T18:14:15.888Z,11.13
2018-05-31T18:16:43.483Z,10.00
2018-05-31T18:19:11.089Z,9.93
2018-05-31T18:21:38.712Z,9.90
2018-05-31T18:24:06.277Z,8.87
2018-05-31T18:26:33.963Z,9.70
2018-05-31T18:29:02.328Z,9.40
2018-05-31T18:31:29.901Z,9.77
2018-05-31T18:33:58.271Z,9.30
2018-05-31T18:36:25.881Z,9.13
2018-05-31T18:38:53.472Z,9.20
2018-05-31T18:41:21.053Z,11.00
2018-05-31T18:43:48.652Z,9.73
2018-05-31T18:46:17.028Z,10.00
2018-05-31T18:48:45.375Z,9.60
2018-05-31T18:51:20.833Z,11.80
2018-05-31T18:53:48.427Z,10.73
2018-05-31T18:56:16.074Z,10.57
2018-05-31T18:58:43.700Z,14.23
2018-05-31T19:01:11.782Z,11.33
2018-05-31T19:03:39.490Z,11.97
2018-05-31T19:06:07.667Z,12.03
2018-05-31T19:08:35.295Z,15.47
2018-05-31T19:11:02.899Z,12.33
2018-05-31T19:13:36.227Z,12.07
2018-05-31T19:16:03.858Z,11.53
2018-05-31T19:18:37.122Z,10.53
2018-05-31T19:21:04.713Z,10.33
2018-05-31T19:23:32.325Z,11.27
2018-05-31T19:25:59.914Z,12.43
2018-05-31T19:28:27.491Z,14.00
2018-05-31T19:31:00.611Z,13.13
2018-05-31T19:33:29.070Z,13.50
2018-05-31T19:36:02.368Z,13.80
2018-05-31T19:38:30.012Z,13.57
2018-05-31T19:40:57.610Z,13.63
2018-05-31T19:43:30.904Z,13.17
2018-05-31T19:45:59.274Z,14.43
2018-05-31T19:48:26.885Z,14.07
2018-05-31T19:50:54.518Z,13.93
2018-05-31T19:53:27.722Z,14.07
2018-05-31T19:55:55.390Z,13.40
2018-05-31T19:58:29.383Z,13.13
2018-05-31T20:01:02.589Z,13.57
2018-05-31T20:03:33.635Z,14.13
2018-05-31T20:06:02.039Z,13.63
2018-05-31T20:08:29.667Z,13.40
2018-05-31T20:10:57.285Z,12.60
2018-05-31T20:13:24.879Z,13.13
2018-05-31T20:15:52.573Z,14.20
2018-05-31T20:18:20.959Z,13.97
2018-05-31T20:20:49.414Z,14.03
2018-05-31T20:23:17.729Z,13.73
2018-05-31T20:25:46.103Z,14.13
2018-05-31T20:28:14.466Z,15.67
2018-05-31T20:30:42.120Z,15.00
2018-05-31T20:33:09.691Z,14.23
2018-05-31T20:35:37.342Z,14.30
2018-05-31T20:38:04.986Z,13.40
2018-05-31T20:40:33.453Z,13.23
2018-05-31T20:43:01.829Z,13.47
2018-05-31T20:45:30.300Z,13.43
2018-05-31T20:47:57.945Z,13.57
2018-05-31T20:50:25.571Z,12.47
2018-05-31T20:52:53.181Z,12.97
2018-05-31T20:55:20.759Z,12.20
2018-05-31T20:57:48.399Z,12.53
2018-05-31T21:00:15.997Z,13.30
2018-05-31T21:02:43.591Z,12.50
2018-05-31T21:05:11.183Z,12.63
2018-05-31T21:07:39.692Z,12.93
2018-05-31T21:10:08.050Z,13.90
2018-05-31T21:12:35.660Z,13.03
2018-05-31T21:15:03.278Z,12.93
2018-05-31T21:17:30.894Z,11.83
2018-05-31T21:19:59.293Z,11.03
2018-05-31T21:22:27.588Z,11.30
2018-05-31T21:24:55.200Z,11.07
2018-05-31T21:27:22.850Z,10.87
2018-05-31T21:29:50.434Z,11.17
2018-05-31T21:32:18.031Z,11.50
2018-05-31T21:34:46.375Z,12.53
2018-05-31T21:37:13.961Z,12.73
2018-05-31T21:39:41.589Z,12.90
2018-05-31T21:42:09.188Z,12.43
2018-05-31T21:44:36.791Z,12.80
2018-05-31T21:47:04.436Z,13.40
2018-05-31T21:49:32.859Z,13.87
2018-05-31T21:52:00.448Z,12.60
2018-05-31T21:54:28.043Z,12.27
2018-05-31T21:56:56.567Z,13.23
2018-05-31T21:59:24.406Z,13.00
2018-05-31T22:01:52.007Z,13.70
2018-05-31T22:04:20.599Z,13.93
2018-05-31T22:06:48.220Z,13.90
2018-05-31T22:09:15.874Z,14.47
2018-05-31T22:11:43.488Z,14.73
2018-05-31T22:14:11.132Z,14.87
2018-05-31T22:16:39.991Z,13.67
2018-05-31T22:19:07.579Z,13.13
2018-05-31T22:21:36.051Z,13.90
2018-05-31T22:24:03.653Z,14.40
2018-05-31T22:26:31.267Z,13.53
2018-05-31T22:28:58.869Z,14.10
2018-05-31T22:31:26.472Z,15.00
2018-05-31T22:33:54.054Z,17.50
2018-05-31T22:36:21.626Z,17.17
2018-05-31T22:38:49.244Z,17.60
2018-05-31T22:41:17.584Z,17.83
2018-05-31T22:43:45.167Z,16.77
2018-05-31T22:46:13.524Z,17.93
2018-05-31T22:48:41.120Z,15.90
2018-05-31T22:51:08.703Z,15.93
2018-05-31T22:53:37.046Z,15.13
2018-05-31T22:56:04.630Z,14.40
2018-05-31T22:58:32.281Z,14.63
2018-05-31T23:00:59.865Z,14.20
2018-05-31T23:03:28.238Z,14.27
2018-05-31T23:05:56.556Z,14.00
2018-05-31T23:08:24.177Z,13.80
2018-05-31T23:10:51.775Z,14.03
2018-05-31T23:13:20.103Z,13.93
2018-05-31T23:15:47.740Z,13.10
2018-05-31T23:18:15.323Z,13.37
2018-05-31T23:20:42.905Z,14.27
2018-05-31T23:23:10.466Z,14.73
2018-05-31T23:25:38.060Z,18.00
2018-05-31T23:28:05.630Z,15.00
2018-05-31T23:30:33.990Z,14.53
2018-05-31T23:33:01.572Z,15.23
2018-05-31T23:35:29.169Z,15.30
2018-05-31T23:37:56.801Z,14.60
2018-05-31T23:40:24.384Z,14.73
2018-05-31T23:42:51.963Z,15.50
2018-05-31T23:45:19.544Z,16.70
2018-05-31T23:47:47.902Z,17.23
2018-05-31T23:50:16.244Z,17.50
2018-05-31T23:52:43.873Z,17.10
2018-05-31T23:55:11.467Z,18.07
2018-05-31T23:57:39.097Z,17.23
